Time;durP1;ratioP1;P1;durP2;ratioP2;P2;SDS_P1;SDS_P2;PMS_P1;PMS_P2;Temp;Humidity;BMP_temperature;BMP_pressure;BME280_temperature;BME280_humidity;BME280_pressure;Samples;Min_cycle;Max_cycle;Signal;HPM_P1;HPM_P2
2022/10/07 00:01:45;;;;;;;;;;;11.50;99.90;;;;;;5080403;28;20429;-76
2022/10/07 00:04:10;;;;;;;;;;;11.40;99.90;;;;;;5113390;28;20397;-76
2022/10/07 00:06:36;;;;;;;;;;;11.50;99.90;;;;;;5113537;28;19924;-78
2022/10/07 00:09:01;;;;;;;;;;;11.50;99.90;;;;;;5097223;28;20040;-78
2022/10/07 00:11:27;;;;;;;;;;;11.50;99.90;;;;;;5096842;28;19931;-79
2022/10/07 00:13:54;;;;;;;;;;;11.50;99.90;;;;;;5097676;28;19928;-78
2022/10/07 00:16:23;;;;;;;;;;;11.50;99.90;;;;;;5113755;28;19924;-78
2022/10/07 00:18:49;;;;;;;;;;;11.50;99.90;;;;;;5113638;28;20280;-78
2022/10/07 00:21:15;;;;;;;;;;;11.50;99.90;;;;;;5113705;28;19973;-78
2022/10/07 00:23:41;;;;;;;;;;;11.50;99.90;;;;;;5096682;28;19924;-78
2022/10/07 00:26:08;;;;;;;;;;;11.50;99.90;;;;;;5113576;28;20305;-78
2022/10/07 00:28:35;;;;;;;;;;;11.50;99.90;;;;;;5114409;28;19924;-78
2022/10/07 00:31:02;;;;;;;;;;;11.50;99.90;;;;;;5113713;28;20290;-78
2022/10/07 00:33:32;;;;;;;;;;;11.50;99.90;;;;;;5114527;28;20273;-78
2022/10/07 00:35:57;;;;;;;;;;;11.50;99.90;;;;;;5097419;28;20011;-78
2022/10/07 00:38:23;;;;;;;;;;;11.50;99.90;;;;;;5113336;28;19971;-78
2022/10/07 00:40:48;;;;;;;;;;;11.40;99.90;;;;;;5096581;28;19924;-78
2022/10/07 00:43:30;;;;;;;;;;;11.40;99.90;;;;;;5113498;28;19924;-78
2022/10/07 00:46:00;;;;;;;;;;;11.40;99.90;;;;;;5096776;28;19959;-79
2022/10/07 00:48:27;;;;;;;;;;;11.40;99.90;;;;;;5114368;28;19923;-78
2022/10/07 00:50:55;;;;;;;;;;;11.30;99.90;;;;;;5113403;28;19928;-78
2022/10/07 00:53:22;;;;;;;;;;;11.40;99.90;;;;;;5113496;28;20027;-78
2022/10/07 00:55:48;;;;;;;;;;;11.40;99.90;;;;;;5113347;28;19924;-78
2022/10/07 00:58:14;;;;;;;;;;;11.30;99.90;;;;;;5079580;28;19924;-78
2022/10/07 01:00:39;;;;;;;;;;;11.40;99.90;;;;;;5113013;28;20015;-78
2022/10/07 01:03:05;;;;;;;;;;;11.40;99.90;;;;;;5097266;28;19924;-78
2022/10/07 01:05:31;;;;;;;;;;;11.40;99.90;;;;;;5113251;28;19973;-79
2022/10/07 01:07:57;;;;;;;;;;;11.50;99.90;;;;;;5113296;28;20010;-78
2022/10/07 01:10:27;;;;;;;;;;;11.40;99.90;;;;;;5097184;28;19927;-78
2022/10/07 01:13:03;;;;;;;;;;;11.40;99.90;;;;;;5113553;28;19927;-79
2022/10/07 01:15:38;;;;;;;;;;;11.40;99.90;;;;;;5096589;28;19924;-78
2022/10/07 01:18:08;;;;;;;;;;;11.40;99.90;;;;;;5097683;28;19971;-78
2022/10/07 01:20:36;;;;;;;;;;;11.40;99.90;;;;;;5116997;28;20397;-78
2022/10/07 01:23:11;;;;;;;;;;;11.50;99.90;;;;;;5117856;28;20010;-78
2022/10/07 01:25:36;;;;;;;;;;;11.50;99.90;;;;;;5100258;28;19931;-81
2022/10/07 01:28:08;;;;;;;;;;;11.40;99.90;;;;;;5100201;28;20267;-78
2022/10/07 01:30:39;;;;;;;;;;;11.40;99.90;;;;;;5116896;28;20375;-78
2022/10/07 01:33:08;;;;;;;;;;;11.40;99.90;;;;;;5117722;28;19967;-78
2022/10/07 01:35:35;;;;;;;;;;;11.40;99.90;;;;;;5099737;28;19986;-78
2022/10/07 01:38:05;;;;;;;;;;;11.40;99.90;;;;;;5116604;28;19924;-78
2022/10/07 01:40:33;;;;;;;;;;;11.40;99.90;;;;;;5116436;28;19941;-79
2022/10/07 01:42:59;;;;;;;;;;;11.40;99.90;;;;;;5099931;28;20076;-78
2022/10/07 01:45:27;;;;;;;;;;;11.40;99.90;;;;;;5117394;28;19924;-78
2022/10/07 01:47:52;;;;;;;;;;;11.40;99.90;;;;;;5116540;28;19924;-77
2022/10/07 01:50:21;;;;;;;;;;;11.30;99.90;;;;;;5099532;28;19931;-77
2022/10/07 01:52:50;;;;;;;;;;;11.40;99.90;;;;;;5100323;28;19939;-77
2022/10/07 01:55:37;;;;;;;;;;;11.40;99.90;;;;;;5099356;28;19923;-78
2022/10/07 01:58:14;;;;;;;;;;;11.40;99.90;;;;;;5099724;28;19931;-77
2022/10/07 02:00:50;;;;;;;;;;;11.40;99.90;;;;;;5116765;28;19924;-78
2022/10/07 02:03:16;;;;;;;;;;;11.40;99.90;;;;;;5116643;28;20011;-77
2022/10/07 02:05:42;;;;;;;;;;;11.40;99.90;;;;;;5116201;28;19973;-78
2022/10/07 02:08:18;;;;;;;;;;;11.40;99.90;;;;;;5115876;28;19928;-78
2022/10/07 02:11:00;;;;;;;;;;;11.40;99.90;;;;;;5099410;28;19923;-78
2022/10/07 02:13:32;;;;;;;;;;;11.40;99.90;;;;;;5099467;28;20275;-77
2022/10/07 02:16:00;;;;;;;;;;;11.40;99.90;;;;;;5116893;28;20306;-78
2022/10/07 02:18:27;;;;;;;;;;;11.40;99.90;;;;;;5116188;28;19924;-78
2022/10/07 02:20:53;;;;;;;;;;;11.40;99.90;;;;;;5098927;28;19923;-77
2022/10/07 02:23:20;;;;;;;;;;;11.30;99.90;;;;;;5115887;28;20355;-77
2022/10/07 02:25:47;;;;;;;;;;;11.40;99.90;;;;;;5115403;28;20269;-78
2022/10/07 02:28:14;;;;;;;;;;;11.30;99.90;;;;;;5098756;28;19924;-77
2022/10/07 02:30:42;;;;;;;;;;;11.30;99.90;;;;;;5098437;28;19924;-77
2022/10/07 02:33:08;;;;;;;;;;;11.40;99.90;;;;;;5098709;28;19924;-77
2022/10/07 02:35:48;;;;;;;;;;;11.40;99.90;;;;;;5099470;28;19928;-78
2022/10/07 02:38:15;;;;;;;;;;;11.40;99.90;;;;;;5098928;28;19923;-78
2022/10/07 02:41:02;;;;;;;;;;;11.30;99.90;;;;;;5099063;28;19931;-78
2022/10/07 02:43:27;;;;;;;;;;;11.30;99.90;;;;;;5115023;28;19931;-77
2022/10/07 02:45:56;;;;;;;;;;;11.30;99.90;;;;;;5115715;28;19928;-77
2022/10/07 02:48:25;;;;;;;;;;;11.30;99.90;;;;;;5115430;28;20018;-78
2022/10/07 02:50:54;;;;;;;;;;;11.40;99.90;;;;;;5115666;28;19924;-78
2022/10/07 02:53:20;;;;;;;;;;;11.40;99.90;;;;;;5098267;28;19923;-80
2022/10/07 02:55:47;;;;;;;;;;;11.30;99.90;;;;;;5081409;28;20332;-78
2022/10/07 02:58:13;;;;;;;;;;;11.30;99.90;;;;;;5115141;28;19928;-78
2022/10/07 03:00:41;;;;;;;;;;;11.30;99.90;;;;;;5098118;28;19931;-78
2022/10/07 03:03:07;;;;;;;;;;;11.30;99.90;;;;;;5098082;28;19924;-78
2022/10/07 03:05:33;;;;;;;;;;;11.30;99.90;;;;;;5081149;28;19927;-78
2022/10/07 03:08:00;;;;;;;;;;;11.30;99.90;;;;;;5081065;28;19930;-78
2022/10/07 03:10:27;;;;;;;;;;;11.20;99.90;;;;;;5098813;28;19997;-78
2022/10/07 03:12:53;;;;;;;;;;;11.20;99.90;;;;;;5098118;28;20026;-78
2022/10/07 03:15:19;;;;;;;;;;;11.20;99.90;;;;;;5097858;28;20018;-78
2022/10/07 03:17:44;;;;;;;;;;;11.20;99.90;;;;;;5098693;28;19924;-77
2022/10/07 03:20:13;;;;;;;;;;;11.20;99.90;;;;;;5097468;28;19927;-78
2022/10/07 03:22:41;;;;;;;;;;;11.20;99.90;;;;;;5098098;28;19947;-77
2022/10/07 03:25:07;;;;;;;;;;;11.20;99.90;;;;;;5097408;28;19923;-78
2022/10/07 03:27:32;;;;;;;;;;;11.20;99.90;;;;;;5114624;28;19934;-78
2022/10/07 03:29:58;;;;;;;;;;;11.20;99.90;;;;;;5114556;28;20015;-78
2022/10/07 03:32:26;;;;;;;;;;;11.20;99.90;;;;;;5114380;28;19923;-78
2022/10/07 03:34:53;;;;;;;;;;;11.30;99.90;;;;;;5114449;28;20283;-78
2022/10/07 03:37:19;;;;;;;;;;;11.30;99.90;;;;;;5081480;28;19946;-78
2022/10/07 03:39:45;;;;;;;;;;;11.30;99.90;;;;;;5097240;28;19926;-78
2022/10/07 03:42:10;;;;;;;;;;;11.30;99.90;;;;;;5080058;28;19930;-79
2022/10/07 03:44:37;;;;;;;;;;;11.20;99.90;;;;;;5097336;28;19928;-78
2022/10/07 03:47:03;;;;;;;;;;;11.20;99.90;;;;;;5080417;28;19930;-78
2022/10/07 03:49:28;;;;;;;;;;;11.20;99.90;;;;;;5097211;28;20014;-79
2022/10/07 03:51:54;;;;;;;;;;;11.30;99.90;;;;;;5097454;28;19934;-79
2022/10/07 03:54:20;;;;;;;;;;;11.20;99.90;;;;;;5114129;28;20278;-79
2022/10/07 03:56:45;;;;;;;;;;;11.20;99.90;;;;;;5114119;28;19928;-78
2022/10/07 03:59:11;;;;;;;;;;;11.20;99.90;;;;;;5113594;28;19947;-78
2022/10/07 04:01:38;;;;;;;;;;;11.30;99.90;;;;;;5114029;28;19959;-78
2022/10/07 04:04:06;;;;;;;;;;;11.20;99.90;;;;;;5097010;28;19937;-79
2022/10/07 04:06:32;;;;;;;;;;;11.20;99.90;;;;;;5113973;28;19988;-78
2022/10/07 04:08:57;;;;;;;;;;;11.20;99.90;;;;;;5114780;28;19924;-83
2022/10/07 04:11:23;;;;;;;;;;;11.20;99.90;;;;;;5096898;28;20283;-78
2022/10/07 04:13:49;;;;;;;;;;;11.20;99.90;;;;;;5113875;28;19930;-78
2022/10/07 04:16:15;;;;;;;;;;;11.20;99.90;;;;;;5113840;28;20290;-78
2022/10/07 04:18:42;;;;;;;;;;;11.20;99.90;;;;;;5113983;28;20316;-78
2022/10/07 04:21:08;;;;;;;;;;;11.10;99.90;;;;;;5114578;28;19923;-79
2022/10/07 04:23:34;;;;;;;;;;;11.20;99.90;;;;;;5096741;28;20447;-78
2022/10/07 04:25:59;;;;;;;;;;;11.20;99.90;;;;;;5113240;28;19931;-83
2022/10/07 04:28:25;;;;;;;;;;;11.30;99.90;;;;;;5096427;28;19928;-79
2022/10/07 04:30:52;;;;;;;;;;;11.30;99.90;;;;;;5079907;28;19955;-78
2022/10/07 04:33:20;;;;;;;;;;;11.30;99.90;;;;;;5114051;28;19928;-79
2022/10/07 04:35:45;;;;;;;;;;;11.30;99.90;;;;;;5113692;28;19967;-79
2022/10/07 04:38:12;;;;;;;;;;;11.30;99.90;;;;;;5096265;28;20360;-79
2022/10/07 04:40:41;;;;;;;;;;;11.30;99.90;;;;;;5113546;28;19976;-79
2022/10/07 04:43:25;;;;;;;;;;;11.30;99.90;;;;;;5097362;28;19924;-78
2022/10/07 04:45:52;;;;;;;;;;;11.30;99.90;;;;;;5113603;28;19924;-79
2022/10/07 04:48:19;;;;;;;;;;;11.20;99.90;;;;;;5113756;28;20287;-78
2022/10/07 04:50:45;;;;;;;;;;;11.30;99.90;;;;;;5113523;28;19932;-79
2022/10/07 04:53:13;;;;;;;;;;;11.30;99.90;;;;;;5116921;28;19931;-79
2022/10/07 04:55:40;;;;;;;;;;;11.30;99.90;;;;;;5117626;28;19924;-77
2022/10/07 04:58:05;;;;;;;;;;;11.40;99.90;;;;;;5100244;28;19923;-79
2022/10/07 05:00:31;;;;;;;;;;;11.30;99.90;;;;;;5116854;28;19931;-79
2022/10/07 05:02:57;;;;;;;;;;;11.40;99.90;;;;;;5117325;28;19924;-79
2022/10/07 05:05:24;;;;;;;;;;;11.30;99.90;;;;;;5117451;28;19982;-79
2022/10/07 05:07:50;;;;;;;;;;;11.40;99.90;;;;;;5117300;28;19973;-79
2022/10/07 05:10:16;;;;;;;;;;;11.30;99.90;;;;;;5118125;28;19923;-80
2022/10/07 05:12:42;;;;;;;;;;;11.30;99.90;;;;;;5117063;28;19923;-80
2022/10/07 05:15:07;;;;;;;;;;;11.30;99.90;;;;;;5101054;28;19924;-80
2022/10/07 05:17:33;;;;;;;;;;;11.30;99.90;;;;;;5100203;28;20446;-80
2022/10/07 05:19:59;;;;;;;;;;;11.30;99.90;;;;;;5083014;28;19923;-79
2022/10/07 05:22:24;;;;;;;;;;;11.30;99.90;;;;;;5100304;28;20344;-80
2022/10/07 05:24:50;;;;;;;;;;;11.40;99.90;;;;;;5100875;28;20019;-79
2022/10/07 05:27:15;;;;;;;;;;;11.40;99.90;;;;;;5118077;28;20088;-79
2022/10/07 05:29:41;;;;;;;;;;;11.40;99.90;;;;;;5099774;28;19924;-80
2022/10/07 05:32:06;;;;;;;;;;;11.30;99.90;;;;;;5117858;28;19923;-79
2022/10/07 05:34:32;;;;;;;;;;;11.40;99.90;;;;;;5116818;28;19935;-79
2022/10/07 05:36:58;;;;;;;;;;;11.40;99.90;;;;;;5117159;28;19924;-79
2022/10/07 05:39:24;;;;;;;;;;;11.30;99.90;;;;;;5117383;28;20061;-79
2022/10/07 05:41:49;;;;;;;;;;;11.30;99.90;;;;;;5116782;28;19924;-80
2022/10/07 05:44:15;;;;;;;;;;;11.30;99.90;;;;;;5099934;28;20011;-79
2022/10/07 05:46:41;;;;;;;;;;;11.30;99.90;;;;;;5099680;28;19924;-79
2022/10/07 05:49:06;;;;;;;;;;;11.30;99.90;;;;;;5099751;28;20007;-78
2022/10/07 05:51:32;;;;;;;;;;;11.30;99.90;;;;;;5099313;28;19934;-81
2022/10/07 05:53:57;;;;;;;;;;;11.30;99.90;;;;;;5099757;28;19927;-81
2022/10/07 05:56:23;;;;;;;;;;;11.30;99.90;;;;;;5100206;28;20366;-81
2022/10/07 05:58:49;;;;;;;;;;;11.30;99.90;;;;;;5116647;28;19928;-81
2022/10/07 06:01:16;;;;;;;;;;;11.30;99.90;;;;;;5117243;28;19924;-81
2022/10/07 06:03:42;;;;;;;;;;;11.30;99.90;;;;;;5098665;28;19977;-81
2022/10/07 06:06:08;;;;;;;;;;;11.40;99.90;;;;;;5099245;28;19967;-79
2022/10/07 06:08:34;;;;;;;;;;;11.40;99.90;;;;;;5099479;28;19960;-83
2022/10/07 06:13:48;;;;;;;;;;;11.40;99.90;;;;;;5116320;28;19977;-80
2022/10/07 06:16:14;;;;;;;;;;;11.40;99.90;;;;;;5116031;28;19934;-85
2022/10/07 06:18:39;;;;;;;;;;;11.50;99.90;;;;;;5116007;28;19938;-78
2022/10/07 06:21:05;;;;;;;;;;;11.50;99.90;;;;;;5082377;28;20278;-79
2022/10/07 06:23:32;;;;;;;;;;;11.50;99.90;;;;;;5098900;28;19924;-77
2022/10/07 06:26:01;;;;;;;;;;;11.50;99.90;;;;;;5116352;28;20359;-78
2022/10/07 06:28:31;;;;;;;;;;;11.50;99.90;;;;;;5116018;28;19923;-79
2022/10/07 06:30:57;;;;;;;;;;;11.60;99.90;;;;;;5099638;28;19924;-82
2022/10/07 06:33:22;;;;;;;;;;;11.60;99.90;;;;;;5098982;28;20249;-76
2022/10/07 06:35:48;;;;;;;;;;;11.60;99.90;;;;;;5116893;28;19930;-77
2022/10/07 06:38:13;;;;;;;;;;;11.70;99.90;;;;;;5098407;28;19935;-77
2022/10/07 06:40:39;;;;;;;;;;;11.70;99.90;;;;;;5115292;28;20443;-78
2022/10/07 06:43:05;;;;;;;;;;;11.80;99.90;;;;;;5099439;28;19974;-77
2022/10/07 06:45:31;;;;;;;;;;;11.80;99.90;;;;;;5115532;28;19924;-78
2022/10/07 06:47:57;;;;;;;;;;;11.80;99.90;;;;;;5116318;28;20263;-77
2022/10/07 06:50:23;;;;;;;;;;;11.90;99.90;;;;;;5116574;28;20019;-78
2022/10/07 06:52:48;;;;;;;;;;;11.90;99.90;;;;;;5115693;28;20360;-79
2022/10/07 06:55:14;;;;;;;;;;;12.00;99.90;;;;;;5115561;28;19931;-75
2022/10/07 06:57:41;;;;;;;;;;;12.00;99.90;;;;;;5116960;28;20348;-74
2022/10/07 07:00:08;;;;;;;;;;;12.00;99.90;;;;;;5116268;28;19924;-75
2022/10/07 07:02:33;;;;;;;;;;;12.00;99.90;;;;;;5115921;28;19992;-83
2022/10/07 07:05:02;;;;;;;;;;;12.00;99.90;;;;;;5115019;28;20353;-80
2022/10/07 07:07:27;;;;;;;;;;;12.10;99.90;;;;;;5114102;28;19931;-81
2022/10/07 07:09:53;;;;;;;;;;;12.00;99.90;;;;;;5097961;28;19928;-79
2022/10/07 07:12:18;;;;;;;;;;;12.10;99.90;;;;;;5114837;28;20011;-79
2022/10/07 07:14:44;;;;;;;;;;;12.10;99.90;;;;;;5114600;28;19972;-81
2022/10/07 07:17:10;;;;;;;;;;;12.20;99.90;;;;;;5097324;28;20002;-79
2022/10/07 07:19:36;;;;;;;;;;;12.30;99.90;;;;;;5097723;28;19972;-80
2022/10/07 07:22:02;;;;;;;;;;;12.20;99.90;;;;;;5097699;28;19927;-79
2022/10/07 07:24:27;;;;;;;;;;;12.30;99.90;;;;;;5114587;28;19946;-81
2022/10/07 07:26:53;;;;;;;;;;;12.40;99.90;;;;;;5114243;28;19928;-80
2022/10/07 07:29:19;;;;;;;;;;;12.40;99.90;;;;;;5080722;28;20375;-79
2022/10/07 07:31:44;;;;;;;;;;;12.50;99.90;;;;;;5098071;28;19976;-79
2022/10/07 07:34:11;;;;;;;;;;;12.60;99.90;;;;;;5115340;28;19931;-79
2022/10/07 07:36:38;;;;;;;;;;;12.60;99.90;;;;;;5114382;28;19931;-80
2022/10/07 07:39:05;;;;;;;;;;;12.70;99.90;;;;;;5114268;28;19928;-79
2022/10/07 07:41:32;;;;;;;;;;;12.70;99.90;;;;;;5098153;28;19930;-78
2022/10/07 07:43:58;;;;;;;;;;;12.80;99.90;;;;;;5097292;28;20379;-78
2022/10/07 07:46:28;;;;;;;;;;;12.80;99.90;;;;;;5115168;28;19927;-81
2022/10/07 07:48:53;;;;;;;;;;;12.90;99.90;;;;;;5113998;28;20005;-78
2022/10/07 07:51:19;;;;;;;;;;;12.90;99.90;;;;;;5115143;28;20372;-77
2022/10/07 07:53:45;;;;;;;;;;;13.00;99.90;;;;;;5114994;28;20019;-78
2022/10/07 07:56:11;;;;;;;;;;;13.00;99.90;;;;;;5115089;28;20014;-79
2022/10/07 07:58:37;;;;;;;;;;;13.10;99.90;;;;;;5113997;28;19931;-77
2022/10/07 08:01:12;;;;;;;;;;;13.10;99.90;;;;;;5114945;28;20010;-77
2022/10/07 08:03:38;;;;;;;;;;;13.20;99.90;;;;;;5114018;28;19924;-78
2022/10/07 08:06:04;;;;;;;;;;;13.20;99.90;;;;;;5114940;28;19935;-78
2022/10/07 08:08:29;;;;;;;;;;;13.20;99.90;;;;;;5113600;28;20367;-80
2022/10/07 08:10:56;;;;;;;;;;;13.30;99.90;;;;;;5113923;28;19931;-78
2022/10/07 08:13:21;;;;;;;;;;;13.30;99.90;;;;;;5114215;28;19982;-78
2022/10/07 08:15:47;;;;;;;;;;;13.40;99.90;;;;;;5096899;28;19923;-78
2022/10/07 08:18:12;;;;;;;;;;;13.40;99.90;;;;;;5096839;28;20082;-78
2022/10/07 08:20:38;;;;;;;;;;;13.50;99.90;;;;;;5114284;28;19931;-78
2022/10/07 08:23:05;;;;;;;;;;;13.60;99.90;;;;;;5114137;28;19928;-80
2022/10/07 08:25:30;;;;;;;;;;;13.60;99.90;;;;;;5113428;28;20381;-77
2022/10/07 08:27:56;;;;;;;;;;;13.70;99.90;;;;;;5113611;28;19976;-83
2022/10/07 08:30:22;;;;;;;;;;;13.70;99.90;;;;;;5097510;28;19946;-86
2022/10/07 08:32:48;;;;;;;;;;;13.80;99.90;;;;;;5096657;28;19924;-73
2022/10/07 08:35:14;;;;;;;;;;;13.80;99.90;;;;;;5096679;28;19938;-77
2022/10/07 08:37:39;;;;;;;;;;;13.90;99.90;;;;;;5113588;28;19924;-78
2022/10/07 08:40:05;;;;;;;;;;;13.90;99.90;;;;;;5113335;28;19927;-79
2022/10/07 08:42:37;;;;;;;;;;;13.90;99.90;;;;;;5113613;28;20286;-77
2022/10/07 08:45:04;;;;;;;;;;;14.00;99.90;;;;;;5114478;28;19934;-78
2022/10/07 08:47:42;;;;;;;;;;;14.00;99.90;;;;;;5113442;28;19930;-77
2022/10/07 08:50:08;;;;;;;;;;;14.00;99.90;;;;;;5096759;28;20375;-78
2022/10/07 08:52:38;;;;;;;;;;;14.10;99.90;;;;;;5113499;28;19928;-77
2022/10/07 08:55:27;;;;;;;;;;;14.20;99.90;;;;;;5113720;28;19928;-77
2022/10/07 08:58:10;;;;;;;;;;;14.30;99.90;;;;;;5111062;28;19977;-77
2022/10/07 09:00:40;;;;;;;;;;;14.30;99.90;;;;;;5113312;28;20360;-84
2022/10/07 09:03:09;;;;;;;;;;;14.40;99.90;;;;;;5113111;28;19931;-78
2022/10/07 09:05:39;;;;;;;;;;;14.40;99.90;;;;;;5113576;28;19923;-77
2022/10/07 09:08:10;;;;;;;;;;;14.50;99.90;;;;;;5114901;28;19931;-81
2022/10/07 09:10:38;;;;;;;;;;;14.60;99.90;;;;;;5113290;28;19986;-75
2022/10/07 09:13:24;;;;;;;;;;;14.60;99.90;;;;;;5096306;28;20438;-75
2022/10/07 09:15:55;;;;;;;;;;;14.80;99.90;;;;;;5113274;28;19924;-75
2022/10/07 09:18:23;;;;;;;;;;;14.90;99.90;;;;;;5113511;28;19982;-73
2022/10/07 09:20:53;;;;;;;;;;;14.90;99.90;;;;;;5113700;28;19947;-75
2022/10/07 09:23:23;;;;;;;;;;;15.00;99.90;;;;;;5095709;28;19974;-77
2022/10/07 09:25:50;;;;;;;;;;;15.10;99.90;;;;;;5112598;28;20386;-77
2022/10/07 09:28:18;;;;;;;;;;;15.20;99.90;;;;;;5112793;28;20427;-77
2022/10/07 09:30:44;;;;;;;;;;;15.20;99.90;;;;;;5112996;28;19993;-76
2022/10/07 09:33:19;;;;;;;;;;;15.20;99.90;;;;;;5114091;28;19946;-77
2022/10/07 09:35:51;;;;;;;;;;;15.20;99.90;;;;;;5113940;28;19931;-77
2022/10/07 09:38:27;;;;;;;;;;;15.20;99.90;;;;;;5113106;28;20363;-78
2022/10/07 09:41:16;;;;;;;;;;;15.30;99.90;;;;;;5116744;28;19976;-77
2022/10/07 09:44:00;;;;;;;;;;;15.40;99.90;;;;;;5116763;28;19947;-81
2022/10/07 09:46:30;;;;;;;;;;;15.60;99.90;;;;;;5099222;28;19924;-81
2022/10/07 09:48:56;;;;;;;;;;;15.60;99.90;;;;;;5116327;28;19923;-80
2022/10/07 09:51:25;;;;;;;;;;;15.70;99.90;;;;;;5117621;28;19931;-77
2022/10/07 09:53:54;;;;;;;;;;;15.80;99.90;;;;;;5117402;28;19924;-74
2022/10/07 09:56:31;;;;;;;;;;;15.80;99.90;;;;;;5117331;28;19930;-73
2022/10/07 09:59:14;;;;;;;;;;;15.90;99.90;;;;;;5116152;28;19924;-80
2022/10/07 10:01:40;;;;;;;;;;;16.00;99.90;;;;;;5117766;28;19931;-80
2022/10/07 10:04:14;;;;;;;;;;;16.00;99.90;;;;;;5116104;28;19931;-76
2022/10/07 10:06:44;;;;;;;;;;;16.00;99.90;;;;;;5116437;28;19927;-77
2022/10/07 10:09:10;;;;;;;;;;;16.10;99.90;;;;;;5115923;28;19930;-77
2022/10/07 10:11:36;;;;;;;;;;;16.10;99.90;;;;;;5116186;28;19992;-77
2022/10/07 10:14:21;;;;;;;;;;;16.20;99.90;;;;;;5099131;28;19924;-77
2022/10/07 10:16:47;;;;;;;;;;;16.30;99.90;;;;;;5115919;28;19930;-77
2022/10/07 10:19:24;;;;;;;;;;;16.30;99.90;;;;;;5115610;28;20014;-78
2022/10/07 10:21:56;;;;;;;;;;;16.40;99.90;;;;;;5115487;28;20287;-77
2022/10/07 10:27:17;;;;;;;;;;;16.50;99.90;;;;;;5115395;28;19946;-78
2022/10/07 10:29:43;;;;;;;;;;;16.50;99.90;;;;;;5117624;28;20280;-79
2022/10/07 10:32:19;;;;;;;;;;;16.60;99.90;;;;;;5098746;28;19973;-78
2022/10/07 10:35:04;;;;;;;;;;;16.70;99.90;;;;;;5115683;28;19924;-79
2022/10/07 10:37:32;;;;;;;;;;;16.80;99.90;;;;;;5115548;28;19924;-73
2022/10/07 10:40:01;;;;;;;;;;;17.00;99.90;;;;;;5117301;28;19923;-73
2022/10/07 10:42:41;;;;;;;;;;;17.20;99.90;;;;;;5117316;28;19928;-73
2022/10/07 10:45:13;;;;;;;;;;;17.30;99.90;;;;;;5116401;28;20387;-75
2022/10/07 10:47:51;;;;;;;;;;;17.50;99.90;;;;;;5116295;28;19966;-81
2022/10/07 10:50:20;;;;;;;;;;;17.60;99.90;;;;;;5116205;28;19930;-77
2022/10/07 10:52:46;;;;;;;;;;;17.60;99.90;;;;;;5116217;28;19978;-73
2022/10/07 10:55:32;;;;;;;;;;;17.50;99.90;;;;;;5116793;28;19967;-73
2022/10/07 10:58:17;;;;;;;;;;;17.70;99.90;;;;;;5116737;28;20022;-73
2022/10/07 11:01:04;;;;;;;;;;;17.60;99.90;;;;;;5116041;28;19924;-74
2022/10/07 11:03:50;;;;;;;;;;;17.70;99.90;;;;;;5116130;28;20435;-74
2022/10/07 11:06:16;;;;;;;;;;;17.80;99.90;;;;;;5111920;28;19927;-74
2022/10/07 11:08:42;;;;;;;;;;;17.90;99.90;;;;;;5116026;28;19931;-77
2022/10/07 11:11:11;;;;;;;;;;;18.10;99.90;;;;;;5115011;28;20279;-80
2022/10/07 11:13:49;;;;;;;;;;;18.30;99.90;;;;;;5115889;28;19927;-73
2022/10/07 11:16:18;;;;;;;;;;;18.50;99.90;;;;;;5116424;28;19981;-78
2022/10/07 11:18:47;;;;;;;;;;;18.80;99.90;;;;;;5114880;28;19950;-77
2022/10/07 11:21:23;;;;;;;;;;;19.00;99.90;;;;;;5097716;28;19931;-76
2022/10/07 11:23:56;;;;;;;;;;;19.30;99.90;;;;;;5114725;28;20382;-82
2022/10/07 11:26:25;;;;;;;;;;;19.60;99.90;;;;;;5114540;28;20007;-77
2022/10/07 11:28:51;;;;;;;;;;;19.70;99.90;;;;;;5114269;28;20007;-77
2022/10/07 11:31:23;;;;;;;;;;;19.70;99.90;;;;;;5114861;28;19931;-77
2022/10/07 11:33:51;;;;;;;;;;;19.60;99.90;;;;;;5116132;28;19939;-78
2022/10/07 11:36:23;;;;;;;;;;;19.20;99.90;;;;;;5115233;27;19930;-77
2022/10/07 11:38:51;;;;;;;;;;;19.00;99.90;;;;;;5114951;28;19923;-77
2022/10/07 11:41:20;;;;;;;;;;;19.00;99.90;;;;;;5114413;28;19928;-78
2022/10/07 11:43:52;;;;;;;;;;;19.00;99.90;;;;;;5115969;28;19946;-77
2022/10/07 11:46:23;;;;;;;;;;;19.10;99.90;;;;;;5114315;28;19923;-77
2022/10/07 11:48:49;;;;;;;;;;;19.20;99.90;;;;;;5114566;28;20291;-78
2022/10/07 11:51:20;;;;;;;;;;;19.40;99.90;;;;;;5114453;28;19924;-78
2022/10/07 11:53:46;;;;;;;;;;;19.20;99.90;;;;;;5116073;28;19967;-78
2022/10/07 11:56:19;;;;;;;;;;;19.20;99.90;;;;;;5115131;27;19977;-78
2022/10/07 11:58:45;;;;;;;;;;;19.80;99.90;;;;;;5114899;28;20006;-77
2022/10/07 12:01:29;;;;;;;;;;;20.30;99.90;;;;;;5097705;28;19923;-78
2022/10/07 12:04:01;;;;;;;;;;;20.30;99.90;;;;;;5115818;28;19931;-77
2022/10/07 12:06:27;;;;;;;;;;;20.20;99.90;;;;;;5114037;28;20282;-77
2022/10/07 12:08:53;;;;;;;;;;;20.00;99.90;;;;;;5080917;28;20015;-77
2022/10/07 12:11:19;;;;;;;;;;;20.10;99.90;;;;;;5114800;28;20010;-77
2022/10/07 12:13:46;;;;;;;;;;;20.30;99.90;;;;;;5097714;28;20014;-77
2022/10/07 12:16:27;;;;;;;;;;;20.40;99.90;;;;;;5114759;28;19974;-78
2022/10/07 12:19:11;;;;;;;;;;;20.20;99.90;;;;;;5113550;28;19973;-77
2022/10/07 12:21:58;;;;;;;;;;;20.40;99.90;;;;;;5097399;28;20013;-74
2022/10/07 12:24:25;;;;;;;;;;;20.60;99.90;;;;;;5097234;28;20014;-77
2022/10/07 12:26:52;;;;;;;;;;;20.70;99.90;;;;;;5112747;28;19924;-78
2022/10/07 12:29:32;;;;;;;;;;;20.60;99.90;;;;;;5113826;28;20376;-77
2022/10/07 12:31:58;;;;;;;;;;;20.60;99.90;;;;;;5114019;28;20399;-77
2022/10/07 12:34:34;;;;;;;;;;;21.10;99.90;;;;;;5112992;28;20022;-79
2022/10/07 12:37:19;;;;;;;;;;;20.90;99.90;;;;;;5114271;28;19924;-77
2022/10/07 12:39:46;;;;;;;;;;;20.90;99.90;;;;;;5113127;28;19947;-76
2022/10/07 12:42:12;;;;;;;;;;;20.50;99.90;;;;;;5114379;28;19982;-77
2022/10/07 12:44:49;;;;;;;;;;;20.40;99.90;;;;;;5113731;28;20275;-78
2022/10/07 12:47:21;;;;;;;;;;;20.50;99.90;;;;;;5114256;28;19924;-71
2022/10/07 12:49:50;;;;;;;;;;;20.70;99.90;;;;;;5113354;28;19971;-76
2022/10/07 12:52:22;;;;;;;;;;;21.00;99.90;;;;;;5113439;28;20367;-77
2022/10/07 12:54:50;;;;;;;;;;;21.10;99.90;;;;;;5114332;28;20393;-77
2022/10/07 12:57:21;;;;;;;;;;;21.20;99.90;;;;;;5112954;28;20353;-77
2022/10/07 12:59:56;;;;;;;;;;;21.30;99.90;;;;;;5114532;28;19923;-76
2022/10/07 13:02:22;;;;;;;;;;;21.90;99.90;;;;;;5114228;28;20022;-76
2022/10/07 13:04:57;;;;;;;;;;;22.40;99.90;;;;;;5113609;28;19923;-76
2022/10/07 13:07:23;;;;;;;;;;;22.80;99.90;;;;;;5114127;28;19931;-77
2022/10/07 13:09:48;;;;;;;;;;;22.60;99.90;;;;;;5113586;28;20314;-77
2022/10/07 13:12:19;;;;;;;;;;;22.60;99.90;;;;;;5096287;28;19930;-77
2022/10/07 13:14:51;;;;;;;;;;;22.30;99.90;;;;;;5115834;28;19923;-77
2022/10/07 13:17:19;;;;;;;;;;;22.20;99.90;;;;;;5117948;28;20305;-77
2022/10/07 13:19:48;;;;;;;;;;;21.90;99.90;;;;;;5100566;28;20309;-77
2022/10/07 13:22:17;;;;;;;;;;;21.10;99.90;;;;;;5117361;28;20010;-78
2022/10/07 13:24:48;;;;;;;;;;;20.70;99.90;;;;;;5117966;28;19930;-77
2022/10/07 13:27:18;;;;;;;;;;;20.30;99.90;;;;;;5117641;28;19953;-78
2022/10/07 13:29:44;;;;;;;;;;;19.40;99.90;;;;;;5117518;28;19953;-77
2022/10/07 13:32:14;;;;;;;;;;;19.10;99.90;;;;;;5116414;28;19946;-79
2022/10/07 13:34:41;;;;;;;;;;;18.80;99.90;;;;;;5117519;27;19967;-77
2022/10/07 13:37:25;;;;;;;;;;;18.70;99.90;;;;;;5116575;28;19931;-80
2022/10/07 13:39:51;;;;;;;;;;;18.70;99.90;;;;;;5117089;28;20027;-73
2022/10/07 13:42:16;;;;;;;;;;;18.80;99.90;;;;;;5117411;28;20010;-76
2022/10/07 13:44:42;;;;;;;;;;;18.70;99.90;;;;;;5116701;28;20428;-75
2022/10/07 13:47:16;;;;;;;;;;;18.40;99.90;;;;;;5116238;28;19986;-81
2022/10/07 13:49:42;;;;;;;;;;;18.30;99.90;;;;;;5117342;28;19924;-76
2022/10/07 13:52:17;;;;;;;;;;;18.10;99.90;;;;;;5117757;28;19931;-79
2022/10/07 13:54:48;;;;;;;;;;;18.00;99.90;;;;;;5118037;28;20313;-77
2022/10/07 13:57:14;;;;;;;;;;;17.90;99.90;;;;;;5116888;28;19972;-76
2022/10/07 13:59:39;;;;;;;;;;;18.10;99.90;;;;;;5099799;28;19927;-78
2022/10/07 14:02:06;;;;;;;;;;;18.00;99.90;;;;;;5099122;28;19924;-76
2022/10/07 14:04:32;;;;;;;;;;;18.00;99.90;;;;;;5116870;28;19930;-76
2022/10/07 14:07:14;;;;;;;;;;;18.00;99.90;;;;;;5115973;28;20480;-76
2022/10/07 14:09:43;;;;;;;;;;;18.00;99.90;;;;;;5099362;28;19930;-77
2022/10/07 14:12:14;;;;;;;;;;;18.00;99.90;;;;;;5098896;28;20256;-76
2022/10/07 14:14:41;;;;;;;;;;;17.90;99.90;;;;;;5117663;27;20023;-78
2022/10/07 14:17:16;;;;;;;;;;;18.00;99.90;;;;;;5115758;28;19930;-76
2022/10/07 14:19:42;;;;;;;;;;;18.00;99.90;;;;;;5115759;28;19933;-76
2022/10/07 14:22:40;;;;;;;;;;;17.80;99.90;;;;;;5115731;28;20409;-76
2022/10/07 14:25:16;;;;;;;;;;;17.70;99.90;;;;;;5091976;28;20010;-77
2022/10/07 14:27:44;;;;;;;;;;;17.80;99.90;;;;;;5117060;28;19977;-76
2022/10/07 14:30:25;;;;;;;;;;;17.80;99.90;;;;;;5115614;28;19923;-78
2022/10/07 14:35:41;;;;;;;;;;;17.80;99.90;;;;;;5116688;28;19923;-76